Time;durP1;ratioP1;P1;durP2;ratioP2;P2;SDS_P1;SDS_P2;PMS_P1;PMS_P2;Temp;Humidity;BMP_temperature;BMP_pressure;BME280_temperature;BME280_humidity;BME280_pressure;Samples;Min_cycle;Max_cycle;Signal;HPM_P1;HPM_P2
2022/06/26 00:01:28;;;;;;;0.00;0.00;;;20.70;99.90;;;;;;4961130;28;20448;-73
2022/06/26 00:03:58;;;;;;;0.00;0.00;;;20.70;99.90;;;;;;4962137;28;20539;-72
2022/06/26 00:06:26;;;;;;;0.00;0.00;;;20.70;99.90;;;;;;4962028;28;20490;-73
2022/06/26 00:08:53;;;;;;;0.00;0.00;;;20.70;99.90;;;;;;4961651;28;21012;-73
2022/06/26 00:11:22;;;;;;;0.00;0.00;;;20.70;99.90;;;;;;4961839;28;20582;-73
2022/06/26 00:13:49;;;;;;;0.00;0.00;;;20.70;99.90;;;;;;4962100;28;20444;-73
2022/06/26 00:16:19;;;;;;;0.00;0.00;;;20.70;99.90;;;;;;4961158;28;20452;-73
2022/06/26 00:18:47;;;;;;;0.00;0.00;;;20.60;99.90;;;;;;4960707;28;20571;-72
2022/06/26 00:21:16;;;;;;;0.00;0.00;;;20.70;99.90;;;;;;4961135;28;20439;-72
2022/06/26 00:23:44;;;;;;;0.00;0.00;;;20.70;99.90;;;;;;4961027;28;20441;-73
2022/06/26 00:26:12;;;;;;;0.00;0.00;;;20.60;99.90;;;;;;4960748;28;20548;-72
2022/06/26 00:28:39;;;;;;;0.00;0.00;;;20.60;99.90;;;;;;4960831;28;21133;-73
2022/06/26 00:31:07;;;;;;;0.00;0.00;;;20.60;99.90;;;;;;4961330;28;21097;-74
2022/06/26 00:33:35;;;;;;;0.00;0.00;;;20.60;99.90;;;;;;4961813;28;20455;-75
2022/06/26 00:36:03;;;;;;;0.00;0.00;;;20.50;99.90;;;;;;4962585;28;20456;-73
2022/06/26 00:38:32;;;;;;;0.00;0.00;;;20.50;99.90;;;;;;4962077;28;20452;-72
2022/06/26 00:41:00;;;;;;;0.00;0.00;;;20.60;99.90;;;;;;4962216;28;20443;-73
2022/06/26 00:43:28;;;;;;;0.00;0.00;;;20.60;99.90;;;;;;4961124;28;20453;-72
2022/06/26 00:45:56;;;;;;;0.00;0.00;;;20.50;99.90;;;;;;4961078;28;20539;-72
2022/06/26 00:48:24;;;;;;;0.00;0.00;;;20.60;99.90;;;;;;4960703;28;20506;-72
2022/06/26 00:50:52;;;;;;;0.00;0.00;;;20.60;99.90;;;;;;4960176;28;20764;-73
2022/06/26 00:53:21;;;;;;;0.00;0.00;;;20.60;99.90;;;;;;4961045;28;20471;-72
2022/06/26 00:55:50;;;;;;;0.00;0.00;;;20.60;99.90;;;;;;4960876;28;20447;-72
2022/06/26 00:58:18;;;;;;;0.00;0.00;;;20.60;99.90;;;;;;4961025;28;20440;-72
2022/06/26 01:00:46;;;;;;;0.00;0.00;;;20.50;99.90;;;;;;4960968;28;20456;-73
2022/06/26 01:03:14;;;;;;;0.00;0.00;;;20.50;99.90;;;;;;4960200;28;20479;-73
2022/06/26 01:05:41;;;;;;;0.00;0.00;;;20.50;99.90;;;;;;4960566;28;21096;-75
2022/06/26 01:08:10;;;;;;;0.00;0.00;;;20.50;99.90;;;;;;4960452;28;20523;-73
2022/06/26 01:10:38;;;;;;;0.00;0.00;;;20.60;99.90;;;;;;4961003;28;20539;-72
2022/06/26 01:13:09;;;;;;;0.00;0.00;;;20.60;99.90;;;;;;4960966;28;20463;-72
2022/06/26 01:15:39;;;;;;;0.00;0.00;;;20.70;99.90;;;;;;4960538;28;20444;-72
2022/06/26 01:18:07;;;;;;;0.00;0.00;;;20.70;99.90;;;;;;4960492;28;20447;-72
2022/06/26 01:20:35;;;;;;;0.00;0.00;;;20.70;99.90;;;;;;4960368;28;20543;-76
2022/06/26 01:23:06;;;;;;;0.00;0.00;;;20.80;99.90;;;;;;4960330;28;20448;-75
2022/06/26 01:25:46;;;;;;;0.00;0.00;;;20.80;99.90;;;;;;4961359;28;20627;-80
2022/06/26 01:28:14;;;;;;;0.00;0.00;;;20.80;99.90;;;;;;4961556;28;20501;-76
2022/06/26 01:30:42;;;;;;;0.00;0.00;;;20.80;99.90;;;;;;4962318;28;20443;-77
2022/06/26 01:33:10;;;;;;;0.00;0.00;;;20.80;99.90;;;;;;4963502;28;20451;-76
2022/06/26 01:35:38;;;;;;;0.00;0.00;;;20.80;99.90;;;;;;4961633;28;20470;-72
2022/06/26 01:38:15;;;;;;;0.00;0.00;;;20.80;99.90;;;;;;4960810;28;20483;-74
2022/06/26 01:40:45;;;;;;;0.00;0.00;;;20.80;99.90;;;;;;4975763;28;20458;-76
2022/06/26 01:43:14;;;;;;;0.00;0.00;;;20.80;99.90;;;;;;4970935;28;20448;-76
2022/06/26 01:45:43;;;;;;;0.00;0.00;;;20.80;99.90;;;;;;4964209;28;20440;-78
2022/06/26 01:48:11;;;;;;;0.00;0.00;;;20.80;99.90;;;;;;4963683;28;20486;-77
2022/06/26 01:50:39;;;;;;;0.00;0.00;;;20.80;99.90;;;;;;4963096;28;20444;-78
2022/06/26 01:53:07;;;;;;;0.00;0.00;;;20.80;99.90;;;;;;4962820;28;21003;-78
2022/06/26 01:55:37;;;;;;;0.00;0.00;;;20.80;99.90;;;;;;4963948;28;21017;-77
2022/06/26 01:58:05;;;;;;;0.00;0.00;;;20.80;99.90;;;;;;4964936;28;20975;-79
2022/06/26 02:00:35;;;;;;;0.00;0.00;;;20.80;99.90;;;;;;4965021;28;20970;-80
2022/06/26 02:03:03;;;;;;;0.00;0.00;;;20.80;99.90;;;;;;4965661;28;20523;-78
2022/06/26 02:05:31;;;;;;;0.00;0.00;;;20.80;99.90;;;;;;4963523;28;20543;-80
2022/06/26 02:08:00;;;;;;;0.00;0.00;;;20.80;99.90;;;;;;4962684;28;20555;-78
2022/06/26 02:16:03;;;;;;;0.00;0.00;;;20.80;99.90;;;;;;4964614;28;20494;-80
2022/06/26 02:21:54;;;;;;;0.00;0.00;;;20.80;99.90;;;;;;5991496;23;20371;-93
2022/06/26 02:24:22;;;;;;;0.00;0.00;;;20.80;99.90;;;;;;5033554;28;20454;-92
2022/06/26 02:26:55;;;;;;;0.00;0.00;;;20.80;99.90;;;;;;5035755;28;20453;-92
2022/06/26 02:29:25;;;;;;;0.00;0.00;;;20.90;99.90;;;;;;5029530;28;20572;-93
2022/06/26 02:31:53;;;;;;;0.00;0.00;;;20.90;99.90;;;;;;5028441;28;20458;-93
2022/06/26 02:34:24;;;;;;;0.00;0.00;;;20.90;99.90;;;;;;5029580;28;20466;-93
2022/06/26 02:36:56;;;;;;;0.00;0.00;;;20.90;99.90;;;;;;5029329;28;20959;-93
2022/06/26 02:39:25;;;;;;;0.00;0.00;;;21.00;99.90;;;;;;5031555;28;20454;-93
2022/06/26 02:41:57;;;;;;;0.00;0.00;;;20.90;99.90;;;;;;5030420;28;20484;-93
2022/06/26 02:44:29;;;;;;;0.00;0.00;;;20.90;99.90;;;;;;5030057;28;20456;-92
2022/06/26 02:46:58;;;;;;;0.00;0.00;;;20.90;99.90;;;;;;5030548;28;20446;-94
2022/06/26 02:49:26;;;;;;;0.00;0.00;;;20.80;99.90;;;;;;5033137;28;20465;-93
2022/06/26 02:51:55;;;;;;;0.00;0.00;;;20.80;99.90;;;;;;5030223;28;20453;-93
2022/06/26 02:54:23;;;;;;;0.00;0.00;;;20.80;99.90;;;;;;5030477;28;20465;-93
2022/06/26 02:56:52;;;;;;;0.00;0.00;;;20.80;99.90;;;;;;5031268;28;20481;-93
2022/06/26 02:59:20;;;;;;;0.00;0.00;;;20.80;99.90;;;;;;5033715;28;20809;-93
2022/06/26 03:01:50;;;;;;;0.00;0.00;;;20.80;99.90;;;;;;5031896;28;20476;-93
2022/06/26 03:04:19;;;;;;;0.00;0.00;;;20.80;99.90;;;;;;5033042;28;20489;-93
2022/06/26 03:06:52;;;;;;;0.00;0.00;;;20.80;99.90;;;;;;5033309;28;20536;-94
2022/06/26 03:09:20;;;;;;;0.00;0.00;;;20.80;99.90;;;;;;5035114;28;20500;-94
2022/06/26 03:11:49;;;;;;;0.00;0.00;;;20.70;99.90;;;;;;5035161;28;20442;-95
2022/06/26 03:14:18;;;;;;;0.00;0.00;;;20.70;99.90;;;;;;5034654;28;20458;-94
2022/06/26 03:16:50;;;;;;;0.00;0.00;;;20.60;99.90;;;;;;5033733;28;20447;-94
2022/06/26 03:19:19;;;;;;;0.00;0.00;;;20.60;99.90;;;;;;5032494;28;20453;-93
2022/06/26 03:21:51;;;;;;;0.00;0.00;;;20.60;99.90;;;;;;5031582;28;20449;-94
2022/06/26 03:24:22;;;;;;;0.00;0.00;;;20.50;99.90;;;;;;5037751;28;20484;-94
2022/06/26 03:26:52;;;;;;;0.00;0.00;;;20.50;99.90;;;;;;5031829;28;20494;-93
2022/06/26 03:29:20;;;;;;;0.00;0.00;;;20.50;99.90;;;;;;5032623;28;20564;-94
2022/06/26 03:31:50;;;;;;;0.00;0.00;;;20.40;99.90;;;;;;5032020;28;20503;-93
2022/06/26 03:34:19;;;;;;;0.00;0.00;;;20.40;99.90;;;;;;5027675;28;20493;-92
2022/06/26 03:36:48;;;;;;;0.00;0.00;;;20.40;99.90;;;;;;5026979;28;20477;-92
2022/06/26 03:39:20;;;;;;;0.00;0.00;;;20.40;99.90;;;;;;5028258;28;20482;-93
2022/06/26 03:42:00;;;;;;;0.00;0.00;;;20.40;99.90;;;;;;5027437;28;20453;-92
2022/06/26 03:44:30;;;;;;;0.00;0.00;;;20.40;99.90;;;;;;5031826;28;20504;-92
2022/06/26 03:47:01;;;;;;;0.00;0.00;;;20.40;99.90;;;;;;5027248;28;20466;-93
2022/06/26 03:49:30;;;;;;;0.00;0.00;;;20.40;99.90;;;;;;5024936;28;20470;-92
2022/06/26 03:51:58;;;;;;;0.00;0.00;;;20.40;99.90;;;;;;5027081;28;20449;-93
2022/06/26 03:54:37;;;;;;;;;;;;;;;;;;;;;
2022/06/26 03:57:08;;;;;;;0.00;0.00;;;20.40;99.90;;;;;;5020056;28;20438;-93
2022/06/26 03:59:43;;;;;;;0.00;0.00;;;20.40;99.90;;;;;;5020782;28;20441;-93
2022/06/26 04:02:18;;;;;;;0.00;0.00;;;20.40;99.90;;;;;;5019558;28;20445;-93
2022/06/26 04:04:48;;;;;;;0.00;0.00;;;20.40;99.90;;;;;;5020507;28;20454;-93
2022/06/26 04:07:18;;;;;;;0.00;0.00;;;20.50;99.90;;;;;;5019800;28;20469;-94
2022/06/26 04:09:50;;;;;;;0.00;0.00;;;20.50;99.90;;;;;;5026664;28;20465;-94
2022/06/26 04:12:30;;;;;;;0.00;0.00;;;20.50;99.90;;;;;;5009107;28;20467;-94
2022/06/26 04:15:01;;;;;;;0.00;0.00;;;20.50;99.90;;;;;;5010614;28;20454;-94
2022/06/26 04:17:38;;;;;;;0.00;0.00;;;20.50;99.90;;;;;;5012640;28;20451;-93
2022/06/26 04:20:09;;;;;;;0.00;0.00;;;20.60;99.90;;;;;;5017859;28;20693;-93
2022/06/26 04:22:38;;;;;;;0.00;0.00;;;20.70;99.90;;;;;;5017225;28;20557;-93
2022/06/26 04:25:22;;;;;;;0.00;0.00;;;20.70;99.90;;;;;;5009037;28;20451;-94
2022/06/26 04:27:50;;;;;;;0.00;0.00;;;20.80;99.90;;;;;;5002334;28;20539;-93
2022/06/26 04:30:21;;;;;;;0.00;0.00;;;20.80;99.90;;;;;;4995848;28;20575;-94
2022/06/26 04:32:51;;;;;;;0.00;0.00;;;20.90;99.90;;;;;;4997708;28;20676;-92
2022/06/26 04:35:23;;;;;;;0.00;0.00;;;20.90;99.90;;;;;;5002769;28;20458;-92
2022/06/26 04:37:51;;;;;;;0.00;0.00;;;21.00;99.90;;;;;;5000063;28;20447;-94
2022/06/26 04:40:32;;;;;;;0.00;0.00;;;21.00;99.90;;;;;;5005842;28;20511;-94
2022/06/26 04:43:02;;;;;;;0.00;0.00;;;20.90;99.90;;;;;;5009241;28;20688;-91
2022/06/26 04:45:36;;;;;;;0.00;0.00;;;20.90;99.90;;;;;;5006894;28;20474;-93
2022/06/26 04:48:06;;;;;;;0.00;0.00;;;21.00;99.90;;;;;;4998481;28;21088;-92
2022/06/26 04:50:35;;;;;;;0.00;0.00;;;21.00;99.90;;;;;;4997416;28;20824;-92
2022/06/26 04:53:04;;;;;;;0.00;0.00;;;21.10;99.90;;;;;;5003678;28;20482;-93
2022/06/26 04:55:37;;;;;;;0.00;0.00;;;21.00;99.90;;;;;;4997248;28;21195;-95
2022/06/26 04:58:09;;;;;;;0.00;0.00;;;21.10;99.90;;;;;;5000650;28;20454;-96
2022/06/26 05:00:37;;;;;;;0.00;0.00;;;21.10;99.90;;;;;;5001611;28;20690;-93
2022/06/26 05:03:13;;;;;;;0.00;0.00;;;21.00;99.90;;;;;;4999033;28;20482;-92
2022/06/26 05:05:44;;;;;;;0.00;0.00;;;21.10;99.90;;;;;;4996424;28;20454;-93
2022/06/26 05:08:19;;;;;;;0.00;0.00;;;21.10;99.90;;;;;;4997314;28;20858;-92
2022/06/26 05:10:50;;;;;;;0.00;0.00;;;21.20;99.90;;;;;;5002153;28;20556;-93
2022/06/26 05:13:22;;;;;;;0.00;0.00;;;21.30;99.90;;;;;;5011710;28;20483;-93
2022/06/26 05:15:58;;;;;;;0.00;0.00;;;21.30;99.90;;;;;;5011651;28;20440;-93
2022/06/26 05:18:32;;;;;;;0.00;0.00;;;21.40;99.90;;;;;;5012150;28;20518;-94
2022/06/26 05:21:03;;;;;;;0.00;0.00;;;21.40;99.90;;;;;;5016165;28;20517;-92
2022/06/26 05:23:42;;;;;;;0.00;0.00;;;21.50;99.90;;;;;;5012895;28;20467;-94
2022/06/26 05:26:10;;;;;;;0.00;0.00;;;21.50;99.90;;;;;;5013248;28;20643;-93
2022/06/26 05:28:40;;;;;;;0.00;0.00;;;21.80;99.90;;;;;;5010505;28;20472;-92
2022/06/26 05:31:09;;;;;;;0.00;0.00;;;22.00;99.90;;;;;;5011083;28;20456;-94
2022/06/26 05:33:39;;;;;;;0.00;0.00;;;22.50;99.90;;;;;;5011221;28;20493;-93
2022/06/26 05:36:09;;;;;;;0.00;0.00;;;22.90;99.90;;;;;;5012039;28;20433;-92
2022/06/26 05:38:41;;;;;;;0.00;0.00;;;23.20;99.90;;;;;;5012572;28;20938;-94
2022/06/26 05:41:10;;;;;;;0.00;0.00;;;23.30;99.90;;;;;;5012779;28;20485;-94
2022/06/26 05:43:41;;;;;;;0.00;0.00;;;23.20;99.90;;;;;;5012284;28;20511;-93
2022/06/26 05:46:09;;;;;;;0.00;0.00;;;23.30;99.90;;;;;;5012412;28;20430;-94
2022/06/26 05:48:40;;;;;;;0.00;0.00;;;23.30;99.90;;;;;;5012268;28;20442;-93
2022/06/26 05:51:08;;;;;;;0.00;0.00;;;23.20;99.90;;;;;;5011632;28;20501;-93
2022/06/26 05:53:39;;;;;;;0.00;0.00;;;23.20;99.90;;;;;;5013284;28;20462;-93
2022/06/26 05:56:08;;;;;;;0.00;0.00;;;23.30;99.90;;;;;;5011971;28;20486;-93
2022/06/26 05:58:38;;;;;;;0.00;0.00;;;23.40;99.90;;;;;;5011013;28;20442;-93
2022/06/26 06:01:07;;;;;;;0.00;0.00;;;23.50;99.90;;;;;;5010239;28;20514;-94
2022/06/26 06:03:40;;;;;;;0.00;0.00;;;23.60;99.90;;;;;;5010515;28;20472;-95
2022/06/26 06:06:09;;;;;;;0.00;0.00;;;23.80;99.90;;;;;;5011101;28;20450;-94
2022/06/26 06:08:38;;;;;;;0.00;0.00;;;24.00;99.90;;;;;;5013520;28;20436;-94
2022/06/26 06:11:06;;;;;;;0.00;0.00;;;24.10;99.90;;;;;;5007685;28;20518;-94
2022/06/26 06:13:35;;;;;;;0.00;0.00;;;24.20;99.90;;;;;;5001580;28;20727;-94
2022/06/26 06:16:05;;;;;;;0.00;0.00;;;24.30;99.90;;;;;;5002526;28;20457;-94
2022/06/26 06:18:37;;;;;;;0.00;0.00;;;24.50;99.90;;;;;;5013978;28;20432;-94
2022/06/26 06:21:13;;;;;;;0.00;0.00;;;24.50;99.90;;;;;;5002106;28;20580;-95
2022/06/26 06:26:47;;;;;;;0.00;0.00;;;24.50;99.90;;;;;;4977096;28;20496;-76
2022/06/26 06:29:17;;;;;;;0.00;0.00;;;24.50;99.90;;;;;;4978273;28;20441;-77
2022/06/26 06:31:45;;;;;;;0.00;0.00;;;24.50;99.90;;;;;;4966138;28;20464;-81
2022/06/26 06:34:13;;;;;;;0.00;0.00;;;24.50;99.90;;;;;;4978108;28;21300;-76
2022/06/26 06:36:42;;;;;;;0.00;0.00;;;24.40;99.90;;;;;;4969624;28;21199;-76
2022/06/26 06:39:10;;;;;;;0.00;0.00;;;24.40;99.90;;;;;;4959307;28;20940;-77
2022/06/26 06:41:38;;;;;;;0.00;0.00;;;24.40;99.90;;;;;;4959614;28;20480;-77
2022/06/26 06:44:05;;;;;;;0.00;0.00;;;24.40;99.90;;;;;;4959627;28;20453;-77
2022/06/26 06:46:33;;;;;;;0.00;0.00;;;24.40;99.90;;;;;;4970289;28;21156;-77
2022/06/26 06:49:01;;;;;;;0.00;0.00;;;24.40;99.90;;;;;;4972151;28;20456;-77
2022/06/26 06:51:29;;;;;;;0.00;0.00;;;24.40;99.90;;;;;;4967581;28;20568;-76
2022/06/26 06:53:58;;;;;;;0.00;0.00;;;24.50;99.90;;;;;;4979139;28;20451;-76
2022/06/26 06:56:26;;;;;;;0.00;0.00;;;24.60;99.90;;;;;;4979812;28;20561;-76
2022/06/26 06:58:54;;;;;;;0.00;0.00;;;24.70;99.90;;;;;;4980225;28;20456;-75
2022/06/26 07:01:22;;;;;;;0.00;0.00;;;24.70;99.90;;;;;;4978770;28;20838;-76
2022/06/26 07:03:50;;;;;;;0.00;0.00;;;24.70;99.90;;;;;;4975450;28;20458;-76
2022/06/26 07:06:17;;;;;;;0.00;0.00;;;24.80;99.90;;;;;;4963063;28;20544;-74
2022/06/26 07:08:45;;;;;;;0.00;0.00;;;24.80;99.90;;;;;;4962384;28;20455;-75
2022/06/26 07:11:15;;;;;;;0.00;0.00;;;24.80;99.90;;;;;;4980864;28;20480;-74
2022/06/26 07:16:21;;;;;;;0.00;0.00;;;24.90;99.90;;;;;;5059007;23;20508;-74
2022/06/26 07:18:49;;;;;;;0.00;0.00;;;25.00;99.90;;;;;;4973404;28;20462;-75
2022/06/26 07:21:16;;;;;;;0.00;0.00;;;25.10;99.90;;;;;;4978306;28;20441;-75
2022/06/26 07:23:44;;;;;;;0.00;0.00;;;25.10;99.90;;;;;;4980204;28;20461;-75
2022/06/26 07:26:12;;;;;;;0.00;0.00;;;25.30;99.90;;;;;;4980460;28;20461;-75
2022/06/26 07:28:43;;;;;;;0.00;0.00;;;25.30;99.90;;;;;;4978683;28;21242;-75
2022/06/26 07:31:11;;;;;;;0.00;0.00;;;25.30;99.90;;;;;;4980071;28;20487;-75
2022/06/26 07:36:25;;;;;;;0.00;0.00;;;25.40;99.90;;;;;;4980202;28;20523;-75
2022/06/26 07:38:54;;;;;;;0.00;0.00;;;25.50;99.90;;;;;;4978102;28;20560;-73
2022/06/26 07:41:22;;;;;;;0.00;0.00;;;25.70;99.90;;;;;;4967417;28;20546;-75
2022/06/26 07:43:57;;;;;;;0.00;0.00;;;25.80;99.90;;;;;;4981147;28;20845;-75
2022/06/26 07:46:25;;;;;;;0.00;0.00;;;25.90;99.90;;;;;;4981139;28;20458;-75
2022/06/26 07:48:53;;;;;;;0.00;0.00;;;26.00;99.90;;;;;;4980548;28;20767;-75
2022/06/26 07:51:21;;;;;;;0.00;0.00;;;26.20;99.90;;;;;;4964662;28;21025;-75
2022/06/26 07:53:49;;;;;;;0.00;0.00;;;26.30;99.90;;;;;;4977732;28;20870;-74
2022/06/26 07:56:17;;;;;;;0.00;0.00;;;26.30;99.90;;;;;;4980334;28;20481;-74
2022/06/26 07:58:45;;;;;;;0.00;0.00;;;26.20;99.90;;;;;;4980581;28;20534;-75
2022/06/26 08:01:15;;;;;;;0.00;0.00;;;26.20;99.90;;;;;;4975664;28;20472;-77
2022/06/26 08:03:45;;;;;;;0.00;0.00;;;26.30;99.90;;;;;;4969528;28;20444;-77
2022/06/26 08:06:13;;;;;;;0.00;0.00;;;26.30;99.90;;;;;;4977142;28;20481;-78
2022/06/26 08:08:41;;;;;;;0.00;0.00;;;26.50;99.90;;;;;;4978144;28;20452;-79
2022/06/26 08:11:10;;;;;;;0.00;0.00;;;26.50;99.90;;;;;;4985230;28;20868;-78
2022/06/26 08:13:38;;;;;;;0.00;0.00;;;26.70;99.90;;;;;;4975117;28;20456;-78
2022/06/26 08:16:06;;;;;;;0.00;0.00;;;26.70;99.90;;;;;;4982375;28;20557;-77
2022/06/26 08:18:35;;;;;;;0.00;0.00;;;26.80;99.90;;;;;;4970987;28;20469;-78
2022/06/26 08:23:46;;;;;;;0.00;0.00;;;27.00;99.90;;;;;;4961867;28;20482;-78
2022/06/26 08:26:14;;;;;;;0.00;0.00;;;27.10;99.90;;;;;;4961871;28;20486;-80
2022/06/26 08:28:42;;;;;;;0.00;0.00;;;27.20;99.90;;;;;;4981015;28;20530;-84
2022/06/26 08:31:10;;;;;;;0.00;0.00;;;27.30;99.90;;;;;;4975226;28;20581;-82
2022/06/26 08:33:39;;;;;;;0.00;0.00;;;27.40;99.90;;;;;;4986068;28;20463;-81
2022/06/26 08:36:07;;;;;;;0.00;0.00;;;27.40;99.90;;;;;;4993193;28;20541;-83
2022/06/26 08:38:36;;;;;;;0.00;0.00;;;27.40;99.90;;;;;;4992259;28;20757;-82
2022/06/26 08:41:07;;;;;;;0.00;0.00;;;27.50;99.90;;;;;;4988660;28;20436;-82
2022/06/26 08:43:36;;;;;;;0.00;0.00;;;27.60;99.90;;;;;;4991922;28;20994;-82
2022/06/26 08:46:05;;;;;;;0.00;0.00;;;27.60;99.90;;;;;;5191968;23;20469;-83
2022/06/26 08:48:42;;;;;;;0.00;0.00;;;27.70;99.90;;;;;;4983752;28;20442;-82
2022/06/26 08:51:11;;;;;;;0.00;0.00;;;27.80;99.90;;;;;;4984504;28;20748;-81
2022/06/26 08:53:40;;;;;;;0.00;0.00;;;27.80;99.90;;;;;;4983965;28;20456;-81
2022/06/26 08:56:09;;;;;;;0.00;0.00;;;27.90;99.90;;;;;;4986001;28;20546;-83
2022/06/26 08:58:36;;;;;;;0.00;0.00;;;28.10;99.90;;;;;;4991619;28;20448;-82
2022/06/26 09:01:07;;;;;;;0.00;0.00;;;28.40;99.90;;;;;;4987954;28;20489;-81
2022/06/26 09:03:35;;;;;;;0.00;0.00;;;28.50;99.90;;;;;;4985899;28;20450;-81
2022/06/26 09:06:05;;;;;;;0.00;0.00;;;28.50;99.90;;;;;;4984284;28;20486;-81
2022/06/26 09:08:43;;;;;;;0.00;0.00;;;28.50;99.90;;;;;;4984542;28;20670;-82
2022/06/26 09:11:12;;;;;;;0.00;0.00;;;28.50;99.90;;;;;;4983563;28;20473;-82
2022/06/26 09:13:41;;;;;;;0.00;0.00;;;28.60;99.90;;;;;;4983401;28;21055;-81
2022/06/26 09:16:10;;;;;;;0.00;0.00;;;28.70;99.90;;;;;;4983428;28;20474;-82
2022/06/26 09:18:39;;;;;;;0.00;0.00;;;28.80;99.90;;;;;;4983727;28;20648;-81
2022/06/26 09:21:10;;;;;;;0.00;0.00;;;28.80;99.90;;;;;;4983587;28;20533;-82
2022/06/26 09:23:40;;;;;;;0.00;0.00;;;28.80;99.90;;;;;;4985951;28;20450;-81
2022/06/26 09:26:08;;;;;;;0.00;0.00;;;28.90;99.90;;;;;;4985004;28;20471;-81
2022/06/26 09:28:36;;;;;;;0.00;0.00;;;29.00;99.90;;;;;;4985623;28;21087;-80
2022/06/26 09:31:06;;;;;;;0.00;0.00;;;29.00;99.90;;;;;;4984031;28;20439;-82
2022/06/26 09:33:35;;;;;;;0.00;0.00;;;29.10;99.90;;;;;;4985149;28;20461;-81
2022/06/26 09:36:06;;;;;;;0.00;0.00;;;29.20;99.90;;;;;;4985348;28;20513;-82
2022/06/26 09:38:37;;;;;;;0.00;0.00;;;29.20;99.90;;;;;;4986573;28;20438;-82
2022/06/26 09:41:07;;;;;;;0.00;0.00;;;29.30;99.90;;;;;;4986279;28;20681;-82
2022/06/26 09:43:36;;;;;;;0.00;0.00;;;29.20;99.90;;;;;;4986937;28;20982;-81
2022/06/26 09:46:06;;;;;;;0.00;0.00;;;29.20;99.90;;;;;;4984625;28;20561;-81
2022/06/26 09:48:35;;;;;;;0.00;0.00;;;29.20;99.90;;;;;;4984780;28;20446;-81
2022/06/26 09:51:05;;;;;;;0.00;0.00;;;29.20;99.90;;;;;;4984346;28;20454;-82
2022/06/26 09:53:35;;;;;;;0.00;0.00;;;29.30;99.90;;;;;;4983986;28;20458;-81
2022/06/26 09:56:05;;;;;;;0.00;0.00;;;29.50;99.90;;;;;;4985466;28;20447;-83
2022/06/26 09:58:33;;;;;;;0.00;0.00;;;29.70;99.90;;;;;;4983184;28;20447;-81
2022/06/26 10:06:36;;;;;;;0.00;0.00;;;30.10;99.90;;;;;;4983161;28;20501;-82
2022/06/26 10:09:07;;;;;;;0.00;0.00;;;30.10;99.90;;;;;;4981779;28;20475;-81
2022/06/26 10:11:37;;;;;;;0.00;0.00;;;30.10;99.90;;;;;;4981408;28;20485;-81
2022/06/26 10:14:12;;;;;;;0.00;0.00;;;29.90;99.90;;;;;;4982237;28;20875;-82
2022/06/26 10:17:06;;;;;;;0.00;0.00;;;29.80;99.90;;;;;;4982754;28;20473;-82
2022/06/26 10:19:44;;;;;;;0.00;0.00;;;29.60;99.90;;;;;;4983379;28;20443;-83
2022/06/26 10:22:13;;;;;;;0.00;0.00;;;29.60;99.90;;;;;;4983160;28;20827;-82
2022/06/26 10:24:55;;;;;;;0.00;0.00;;;29.60;99.90;;;;;;4982550;28;20510;-81
2022/06/26 10:27:25;;;;;;;0.00;0.00;;;29.50;99.90;;;;;;4982129;28;20457;-82
2022/06/26 10:30:08;;;;;;;0.00;0.00;;;29.50;99.90;;;;;;4982749;28;20585;-82
2022/06/26 10:32:37;;;;;;;0.00;0.00;;;29.60;99.90;;;;;;4984608;28;20985;-82
2022/06/26 10:35:09;;;;;;;0.00;0.00;;;29.70;99.90;;;;;;4988664;28;20458;-83
2022/06/26 10:37:42;;;;;;;0.00;0.00;;;29.70;99.90;;;;;;4996468;28;20458;-83
2022/06/26 10:42:52;;;;;;;0.00;0.00;;;29.70;99.90;;;;;;4993745;28;20710;-83
2022/06/26 10:43:08;;;;;;;0.00;0.00;;;29.80;99.90;;;;;;4989761;28;20505;-83
2022/06/26 10:45:43;;;;;;;0.00;0.00;;;29.90;99.90;;;;;;4986604;28;21028;-81
2022/06/26 10:48:20;;;;;;;0.00;0.00;;;29.90;99.90;;;;;;4986081;28;20480;-81
2022/06/26 10:50:57;;;;;;;0.00;0.00;;;29.90;99.90;;;;;;4986082;28;20687;-81
2022/06/26 10:53:32;;;;;;;0.00;0.00;;;30.00;99.90;;;;;;4986165;28;20482;-81
2022/06/26 10:56:05;;;;;;;0.00;0.00;;;30.00;99.90;;;;;;4986051;28;20872;-83
2022/06/26 10:58:35;;;;;;;0.00;0.00;;;29.80;99.90;;;;;;4985432;28;20449;-80
2022/06/26 11:01:07;;;;;;;0.00;0.00;;;29.90;99.90;;;;;;4985707;28;20459;-81
2022/06/26 11:03:36;;;;;;;0.00;0.00;;;29.90;99.90;;;;;;4986107;28;20450;-81
2022/06/26 11:06:06;;;;;;;0.00;0.00;;;29.70;99.90;;;;;;4986531;28;21029;-80
2022/06/26 11:08:35;;;;;;;0.00;0.00;;;29.60;99.90;;;;;;4988513;28;20557;-81
2022/06/26 11:11:08;;;;;;;0.00;0.00;;;29.50;99.90;;;;;;4989692;28;20861;-81
2022/06/26 11:13:47;;;;;;;0.00;0.00;;;29.40;99.90;;;;;;4986763;28;20505;-80
2022/06/26 11:16:15;;;;;;;0.00;0.00;;;29.40;99.90;;;;;;4985518;28;21012;-80
2022/06/26 11:18:43;;;;;;;0.00;0.00;;;29.40;99.90;;;;;;4986698;28;20449;-81
2022/06/26 11:21:17;;;;;;;0.00;0.00;;;29.50;99.90;;;;;;4985448;28;20528;-80
2022/06/26 11:23:45;;;;;;;0.00;0.00;;;29.50;99.90;;;;;;4985721;28;20753;-81
2022/06/26 11:26:21;;;;;;;0.00;0.00;;;29.70;99.90;;;;;;4984662;28;20790;-82
2022/06/26 11:28:55;;;;;;;0.00;0.00;;;29.80;99.90;;;;;;4984876;28;20454;-82
2022/06/26 11:31:28;;;;;;;0.00;0.00;;;29.80;99.90;;;;;;4984768;28;20441;-82
2022/06/26 11:34:07;;;;;;;0.00;0.00;;;30.10;99.90;;;;;;4985006;28;20478;-81
2022/06/26 11:36:35;;;;;;;0.00;0.00;;;30.30;99.90;;;;;;4985685;28;20985;-81
2022/06/26 11:39:05;;;;;;;0.00;0.00;;;30.40;99.90;;;;;;4984653;28;20462;-81
2022/06/26 11:41:35;;;;;;;0.00;0.00;;;30.40;99.90;;;;;;4984992;28;20443;-80
2022/06/26 11:44:06;;;;;;;0.00;0.00;;;30.30;99.90;;;;;;4985370;28;20758;-81
2022/06/26 11:46:34;;;;;;;0.00;0.00;;;30.30;99.90;;;;;;4985199;28;20474;-80
2022/06/26 11:49:13;;;;;;;0.00;0.00;;;30.30;99.90;;;;;;4985639;28;20542;-81
2022/06/26 11:51:43;;;;;;;0.00;0.00;;;30.30;99.90;;;;;;4985376;28;20833;-81
2022/06/26 11:54:24;;;;;;;0.00;0.00;;;30.30;99.90;;;;;;4984546;28;20540;-81
2022/06/26 11:56:53;;;;;;;0.00;0.00;;;30.20;99.90;;;;;;4986235;28;20467;-81
2022/06/26 11:59:21;;;;;;;0.00;0.00;;;30.00;99.90;;;;;;4988523;28;20459;-82
2022/06/26 12:01:50;;;;;;;0.00;0.00;;;30.00;99.90;;;;;;4995381;28;20454;-81
2022/06/26 12:04:18;;;;;;;0.00;0.00;;;29.90;99.90;;;;;;4988749;28;20533;-82
2022/06/26 12:06:52;;;;;;;0.00;0.00;;;29.70;99.90;;;;;;4991356;28;20707;-81
2022/06/26 12:09:23;;;;;;;0.00;0.00;;;29.70;99.90;;;;;;4987642;28;21112;-81
2022/06/26 12:11:54;;;;;;;0.00;0.00;;;29.50;99.90;;;;;;4988497;28;20435;-82
2022/06/26 12:14:25;;;;;;;0.00;0.00;;;29.40;99.90;;;;;;4988590;28;20475;-81
2022/06/26 12:16:54;;;;;;;0.00;0.00;;;29.10;99.90;;;;;;4991392;28;20525;-81
2022/06/26 12:19:23;;;;;;;0.00;0.00;;;28.90;99.90;;;;;;4995779;28;20473;-81
2022/06/26 12:21:53;;;;;;;0.00;0.00;;;28.70;99.90;;;;;;4993037;28;20493;-81
2022/06/26 12:24:22;;;;;;;0.00;0.00;;;28.50;99.90;;;;;;4998790;28;20438;-81
2022/06/26 12:26:50;;;;;;;0.00;0.00;;;28.40;99.90;;;;;;4994852;28;20481;-81
2022/06/26 12:29:20;;;;;;;0.00;0.00;;;28.20;99.90;;;;;;4985307;28;20559;-81
2022/06/26 12:31:52;;;;;;;0.00;0.00;;;28.20;99.90;;;;;;4986435;28;20464;-81
2022/06/26 12:34:21;;;;;;;0.00;0.00;;;28.10;99.90;;;;;;4985878;28;20873;-82
2022/06/26 12:36:50;;;;;;;0.00;0.00;;;28.00;99.90;;;;;;4985629;28;20854;-82
2022/06/26 12:39:18;;;;;;;0.00;0.00;;;28.00;99.90;;;;;;4984901;28;20442;-82
2022/06/26 12:42:06;;;;;;;0.00;0.00;;;28.00;99.90;;;;;;4983905;28;20597;-81
2022/06/26 12:44:36;;;;;;;0.00;0.00;;;28.10;99.90;;;;;;4963806;28;20571;-81
2022/06/26 12:47:04;;;;;;;0.00;0.00;;;28.20;99.90;;;;;;4982776;28;20928;-83
2022/06/26 12:49:32;;;;;;;0.00;0.00;;;28.20;99.90;;;;;;4983546;28;20654;-81
2022/06/26 12:52:00;;;;;;;0.00;0.00;;;28.20;99.90;;;;;;4983530;28;20791;-81
2022/06/26 12:54:28;;;;;;;0.00;0.00;;;28.30;99.90;;;;;;4983360;28;21068;-81
2022/06/26 12:56:56;;;;;;;0.00;0.00;;;28.50;99.90;;;;;;4983984;28;20458;-81
2022/06/26 12:59:24;;;;;;;0.00;0.00;;;28.70;99.90;;;;;;4982967;28;20572;-81
2022/06/26 13:01:53;;;;;;;0.00;0.00;;;28.80;99.90;;;;;;4983942;28;20557;-81
2022/06/26 13:04:21;;;;;;;0.00;0.00;;;28.80;99.90;;;;;;4983794;28;20480;-83
2022/06/26 13:06:49;;;;;;;0.00;0.00;;;28.80;99.90;;;;;;4982621;28;20500;-82
2022/06/26 13:09:17;;;;;;;0.00;0.00;;;28.90;99.90;;;;;;4974875;28;20450;-77
2022/06/26 13:11:45;;;;;;;0.00;0.00;;;28.90;99.90;;;;;;4974053;28;20468;-81
2022/06/26 13:14:12;;;;;;;0.00;0.00;;;28.90;99.90;;;;;;4970811;28;20562;-81
2022/06/26 13:16:41;;;;;;;0.00;0.00;;;28.80;99.90;;;;;;4974650;28;20475;-81
2022/06/26 13:19:11;;;;;;;0.00;0.00;;;28.90;99.90;;;;;;4972551;28;20508;-85
2022/06/26 13:21:40;;;;;;;0.00;0.00;;;28.90;99.90;;;;;;4978997;28;20599;-87
2022/06/26 13:24:08;;;;;;;0.00;0.00;;;28.90;99.90;;;;;;4973120;28;20513;-82
2022/06/26 13:26:39;;;;;;;0.00;0.00;;;28.80;99.90;;;;;;4974692;28;20975;-81
2022/06/26 13:29:07;;;;;;;0.00;0.00;;;28.80;99.90;;;;;;4969082;28;20561;-77